Bull Shoals, AR (72619)

10:55 PM CDT on August 03, 2015 (GMT -0500)
High Ridge | | Change Station
CLOSE
Current Station
Personal Weather Station
Location: Midway-Lakeview, AR
Elevation: 900 ft
Nearby Weather Stations

Elev 900 ft 36.39 °N, 92.49 °W | Updated 14 seconds ago

Partly Cloudy
Partly Cloudy
80.4 °F
Feels Like 83 °F
N
0.0
Wind Variable Wind from East
Gusts 0.0 mph

Today
High -- | Low -- °F
--% Chance of Precip.
Yesterday
High -- | Low -- °F
Precip. -- in
6:18 AM 8:14 PM
Waning Gibbous, 81% visible
Pressure 29.93 in
Visibility 9.0 miles
Clouds Clear
Heat Index 83 °F
Dew Point 69 °F
Humidity 68%
Rainfall 0.00 in
Snow Depth Not available.
UV 0 out of 12
Pollen 6.90 out of 12
Air Quality Not available.
Flu Activity Not available.
METAR KBPK 040253Z AUTO 00000KT 9SM CLR 24/22 A2996 RMK AO2 SLP133 T02390217 53010

More Conditions Fewer Conditions

Pressure 29.93 in
Visibility 9.0 miles
Clouds Clear
Heat Index 83 °F
Dew Point 69 °F
Humidity 68%
Rainfall 0.00 in
Snow Depth Not available.
UV 0 out of 12
Pollen 6.90 out of 12
Air Quality Not available.
Flu Activity Not available.
METAR KBPK 040253Z AUTO 00000KT 9SM CLR 24/22 A2996 RMK AO2 SLP133 T02390217 53010

More Conditions Fewer Conditions

10-Day Weather Forecast

×

Almanac

Astronomy

Aug. 03, 2015 Rise Set
Actual Time
Civil Twilight
Nautical Twilight
Astronomical Twilight
Moon
Length of Visible Light
Length of Day
Tomorrow will be .
, % of the Moon is Illuminated

Today's Extremes

State Highs State Lows

Community

WunderPhotos

Upload Photos

1,843,847 photos uploaded!

WunderBlogs® & News

Nearby

Air Quality

  Air Quality AQ Index Pollutant
Not available.

Snow Depth

Station Depth Elevation

Earthquake Activity

City Distance Mag. Time & Date
Minimum magnitude displayed is 2.5.

Coastal Water Temperatures

Place Temperature

Stations

Nearby Weather Stations

Station Location Temp. Windchill Dew Point Humidity Wind Precip. Elev Updated Type